createdAt,value
2023-04-05T00:00:39.445Z,7.80
2023-04-05T00:03:07.060Z,7.70
2023-04-05T00:05:34.686Z,7.70
2023-04-05T00:08:02.577Z,7.70
2023-04-05T00:10:31.326Z,7.70
2023-04-05T00:12:58.881Z,7.70
2023-04-05T00:15:29.536Z,7.70
2023-04-05T00:17:56.705Z,7.60
2023-04-05T00:20:24.026Z,7.60
2023-04-05T00:22:51.161Z,7.60
2023-04-05T00:25:18.962Z,7.60
2023-04-05T00:27:46.645Z,7.60
2023-04-05T00:30:20.805Z,7.60
2023-04-05T00:32:51.614Z,7.60
2023-04-05T00:35:18.843Z,7.60
2023-04-05T00:37:46.286Z,7.60
2023-04-05T00:40:13.572Z,7.60
2023-04-05T00:42:40.953Z,7.60
2023-04-05T00:45:08.535Z,7.60
2023-04-05T00:47:36.362Z,7.70
2023-04-05T00:50:04.222Z,7.70
2023-04-05T00:52:32.382Z,7.70
2023-04-05T00:54:59.605Z,7.70
2023-04-05T00:57:26.895Z,7.70
2023-04-05T00:59:54.213Z,7.70
2023-04-05T01:02:28.858Z,7.70
2023-04-05T01:05:02.785Z,7.70
2023-04-05T01:07:42.997Z,7.70
2023-04-05T01:10:13.513Z,7.70
2023-04-05T01:12:41.567Z,7.70
2023-04-05T01:15:09.302Z,7.70
2023-04-05T01:17:39.406Z,7.70
2023-04-05T01:20:10.336Z,7.70
2023-04-05T01:22:43.660Z,7.70
2023-04-05T01:25:14.763Z,7.70
2023-04-05T01:28:35.878Z,7.70
2023-04-05T01:31:21.649Z,7.70
2023-04-05T01:34:07.297Z,7.70
2023-04-05T01:36:41.017Z,7.70
2023-04-05T01:39:11.714Z,7.70
2023-04-05T01:41:41.985Z,7.70
2023-04-05T01:44:09.152Z,7.60
2023-04-05T01:46:36.687Z,7.70
2023-04-05T01:49:05.380Z,7.60
2023-04-05T01:51:33.285Z,7.60
2023-04-05T01:54:00.639Z,7.60
2023-04-05T01:56:27.692Z,7.60
2023-04-05T01:58:54.820Z,7.70
2023-04-05T02:01:21.916Z,7.70
2023-04-05T02:03:49.283Z,7.60
2023-04-05T02:06:16.559Z,7.70
2023-04-05T02:08:43.700Z,7.70
2023-04-05T02:11:11.289Z,7.70
2023-04-05T02:13:38.536Z,7.70
2023-04-05T02:16:05.959Z,7.70
2023-04-05T02:18:33.092Z,7.70
2023-04-05T02:21:08.478Z,7.70
2023-04-05T02:23:37.941Z,7.70
2023-04-05T02:26:05.561Z,7.70
2023-04-05T02:28:32.678Z,7.70
2023-04-05T02:30:59.819Z,7.70
2023-04-05T02:33:27.805Z,7.70
2023-04-05T02:35:55.670Z,7.70
2023-04-05T02:38:22.842Z,7.70
2023-04-05T02:40:50.147Z,7.70
2023-04-05T02:43:17.433Z,7.70
2023-04-05T02:45:46.857Z,7.70
2023-04-05T02:48:14.995Z,7.70
2023-04-05T02:50:42.710Z,7.70
2023-04-05T02:53:11.175Z,7.70
2023-04-05T02:55:42.135Z,7.70
2023-04-05T02:58:09.531Z,7.70
2023-04-05T03:00:51.156Z,7.70
2023-04-05T03:03:23.401Z,7.80
2023-04-05T03:06:00.570Z,7.80
2023-04-05T03:08:32.805Z,7.80
2023-04-05T03:11:05.235Z,7.80
2023-04-05T03:13:32.574Z,7.80
2023-04-05T03:16:00.062Z,7.80
2023-04-05T03:18:29.876Z,7.80
2023-04-05T03:21:05.139Z,7.80
2023-04-05T03:23:37.081Z,7.80
2023-04-05T03:26:05.472Z,7.80
2023-04-05T03:28:37.070Z,7.70
2023-04-05T03:31:06.778Z,7.80
2023-04-05T03:33:34.441Z,7.70
2023-04-05T03:36:02.512Z,7.70
2023-04-05T03:38:33.153Z,7.80
2023-04-05T03:41:11.669Z,7.80
2023-04-05T03:43:38.887Z,7.80
2023-04-05T03:46:06.489Z,7.70
2023-04-05T03:48:33.675Z,7.80
2023-04-05T03:51:01.240Z,7.80
2023-04-05T03:53:29.622Z,7.80
2023-04-05T03:55:57.783Z,7.80
2023-04-05T03:58:39.016Z,7.80
2023-04-05T04:01:07.091Z,7.80
2023-04-05T04:03:34.159Z,7.80
2023-04-05T04:06:01.642Z,7.80
2023-04-05T04:08:28.860Z,7.80
2023-04-05T04:10:58.825Z,7.80
2023-04-05T04:13:29.639Z,7.80
2023-04-05T04:16:04.024Z,7.80
2023-04-05T04:18:57.499Z,7.80
2023-04-05T04:21:39.636Z,7.80
2023-04-05T04:24:22.002Z,7.80
2023-04-05T04:26:49.757Z,7.80
2023-04-05T04:29:30.871Z,7.80
2023-04-05T04:32:27.002Z,7.80
2023-04-05T04:35:39.309Z,7.80
2023-04-05T04:38:26.237Z,7.80
2023-04-05T04:41:08.932Z,7.90
2023-04-05T04:43:45.288Z,7.90
2023-04-05T04:46:44.277Z,7.90
2023-04-05T04:49:17.311Z,7.90
2023-04-05T04:51:48.924Z,7.90
2023-04-05T04:54:21.063Z,7.90
2023-04-05T04:56:48.632Z,7.90
2023-04-05T04:59:16.252Z,7.90
2023-04-05T05:01:47.316Z,8.00
2023-04-05T05:04:14.578Z,8.00
2023-04-05T05:06:42.844Z,8.00
2023-04-05T05:09:10.923Z,8.00
2023-04-05T05:11:46.861Z,8.00
2023-04-05T05:14:13.936Z,8.00
2023-04-05T05:16:41.158Z,8.00
2023-04-05T05:19:08.322Z,8.00
2023-04-05T05:21:43.489Z,8.00
2023-04-05T05:24:10.832Z,8.00
2023-04-05T05:26:38.184Z,8.00
2023-04-05T05:29:05.470Z,8.00
2023-04-05T05:31:36.688Z,8.00
2023-04-05T05:34:03.991Z,8.00
2023-04-05T05:36:31.379Z,8.00
2023-04-05T05:38:58.525Z,7.90
2023-04-05T05:41:25.906Z,7.90
2023-04-05T05:43:53.848Z,7.80
2023-04-05T05:46:21.323Z,7.80
2023-04-05T05:48:48.555Z,7.80
2023-04-05T05:51:16.154Z,7.80
2023-04-05T05:53:43.607Z,7.80
2023-04-05T05:56:11.510Z,7.80
2023-04-05T05:58:39.374Z,7.70
2023-04-05T06:01:07.657Z,7.70
2023-04-05T06:03:34.904Z,7.70
2023-04-05T06:06:05.959Z,7.70
2023-04-05T06:08:33.108Z,7.70
2023-04-05T06:11:00.633Z,7.70
2023-04-05T06:13:27.972Z,7.70
2023-04-05T06:15:55.152Z,7.70
2023-04-05T06:18:22.391Z,7.70
2023-04-05T06:20:49.525Z,7.70
2023-04-05T06:23:16.623Z,7.70
2023-04-05T06:25:43.877Z,7.70
2023-04-05T06:28:11.058Z,7.70
2023-04-05T06:30:38.562Z,7.60
2023-04-05T06:33:05.921Z,7.70
2023-04-05T06:35:33.189Z,7.70
2023-04-05T06:38:00.411Z,7.70
2023-04-05T06:40:27.556Z,7.70
2023-04-05T06:42:55.171Z,7.70
2023-04-05T06:45:27.836Z,7.70
2023-04-05T06:47:54.911Z,7.70
2023-04-05T06:50:22.103Z,7.70
2023-04-05T06:52:49.224Z,7.70
2023-04-05T06:55:16.500Z,7.70
2023-04-05T06:57:43.647Z,7.80
2023-04-05T07:00:12.339Z,7.80
2023-04-05T07:02:39.770Z,7.80
2023-04-05T07:05:07.150Z,7.80
2023-04-05T07:07:38.531Z,7.80
2023-04-05T07:10:06.357Z,7.80
2023-04-05T07:12:33.436Z,7.80
2023-04-05T07:15:00.987Z,7.80
2023-04-05T07:17:28.297Z,7.80
2023-04-05T07:19:55.824Z,7.80
2023-04-05T07:22:23.185Z,7.80
2023-04-05T07:24:50.370Z,7.80
2023-04-05T07:27:17.530Z,7.80
2023-04-05T07:29:47.146Z,7.80
2023-04-05T07:32:15.475Z,7.80
2023-04-05T07:34:42.733Z,7.80
2023-04-05T07:37:09.868Z,7.80
2023-04-05T07:39:36.996Z,7.80
2023-04-05T07:42:04.380Z,7.70
2023-04-05T07:44:31.512Z,7.70
2023-04-05T07:46:58.678Z,7.70
2023-04-05T07:49:27.809Z,7.70
2023-04-05T07:51:56.666Z,7.70
2023-04-05T07:54:24.230Z,7.70
2023-04-05T07:56:52.319Z,7.70
2023-04-05T07:59:19.563Z,7.70
2023-04-05T08:01:46.729Z,7.80
2023-04-05T08:04:13.920Z,7.80
2023-04-05T08:06:41.498Z,7.80
2023-04-05T08:09:09.259Z,7.80
2023-04-05T08:11:36.384Z,7.80
2023-04-05T08:14:03.663Z,7.90
2023-04-05T08:16:30.932Z,7.90
2023-04-05T08:18:58.250Z,7.90
2023-04-05T08:21:26.700Z,7.90
2023-04-05T08:23:53.964Z,7.90
2023-04-05T08:26:21.217Z,8.00
2023-04-05T08:28:48.411Z,8.00
2023-04-05T08:31:15.671Z,8.00
2023-04-05T08:33:42.962Z,8.00
2023-04-05T08:36:11.797Z,8.00
2023-04-05T08:38:39.028Z,8.00
2023-04-05T08:41:21.843Z,8.00
2023-04-05T08:44:02.789Z,8.00
2023-04-05T08:46:35.325Z,8.00
2023-04-05T08:49:09.296Z,8.10
2023-04-05T08:51:39.880Z,8.00
2023-04-05T08:54:07.482Z,8.10
2023-04-05T08:56:36.420Z,8.10
2023-04-05T08:59:15.908Z,8.00
2023-04-05T09:01:44.532Z,8.00
2023-04-05T09:04:23.490Z,8.00
2023-04-05T09:06:52.266Z,8.00
2023-04-05T09:09:21.710Z,8.00
2023-04-05T09:11:49.247Z,8.00
2023-04-05T09:14:17.819Z,8.10
2023-04-05T09:16:45.058Z,8.10
2023-04-05T09:19:12.408Z,8.10
2023-04-05T09:22:03.322Z,8.10
2023-04-05T09:24:40.981Z,8.10
2023-04-05T09:27:09.991Z,8.10
2023-04-05T09:29:39.299Z,8.10
2023-04-05T09:32:08.782Z,8.10
2023-04-05T09:34:39.169Z,8.10
2023-04-05T09:37:18.499Z,8.10
2023-04-05T09:39:47.403Z,8.10
2023-04-05T09:42:16.646Z,8.10
2023-04-05T09:45:05.255Z,8.10
2023-04-05T09:47:59.178Z,8.10
2023-04-05T09:50:26.657Z,8.10
2023-04-05T09:53:07.928Z,8.20
2023-04-05T09:55:35.895Z,8.20
2023-04-05T09:58:03.652Z,8.30
2023-04-05T10:00:33.625Z,8.30
2023-04-05T10:03:00.941Z,8.30
2023-04-05T10:05:29.637Z,8.30
2023-04-05T10:07:57.131Z,8.40
2023-04-05T10:10:24.961Z,8.40
2023-04-05T10:12:53.949Z,8.40
2023-04-05T10:15:21.475Z,8.40
2023-04-05T10:18:04.278Z,8.40
2023-04-05T10:20:39.565Z,8.40
2023-04-05T10:23:24.523Z,8.40
2023-04-05T10:25:54.949Z,8.40
2023-04-05T10:28:35.884Z,8.40
2023-04-05T10:31:21.059Z,8.40
2023-04-05T10:34:06.513Z,8.40
2023-04-05T10:36:50.171Z,8.40
2023-04-05T10:39:28.359Z,8.40
2023-04-05T10:42:09.823Z,8.40
2023-04-05T10:44:37.585Z,8.40
2023-04-05T10:47:07.070Z,8.40
2023-04-05T10:49:48.416Z,8.40
2023-04-05T10:52:18.020Z,8.40
2023-04-05T10:54:49.538Z,8.50
2023-04-05T10:57:19.501Z,8.50
2023-04-05T10:59:49.158Z,8.60
2023-04-05T11:02:17.027Z,8.60
2023-04-05T11:04:44.441Z,8.60
2023-04-05T11:07:18.706Z,8.60
2023-04-05T11:10:06.204Z,8.70
2023-04-05T11:12:49.017Z,8.70
2023-04-05T11:15:28.435Z,8.70
2023-04-05T11:18:17.435Z,8.70
2023-04-05T11:20:52.509Z,8.70
2023-04-05T11:23:21.711Z,8.70
2023-04-05T11:26:04.538Z,8.70
2023-04-05T11:28:37.830Z,8.70
2023-04-05T11:31:23.055Z,8.70
2023-04-05T11:34:12.982Z,8.70
2023-04-05T11:36:48.097Z,8.70
2023-04-05T11:39:21.646Z,8.70
2023-04-05T11:41:54.153Z,8.70
2023-04-05T11:44:22.421Z,8.70
2023-04-05T11:46:49.658Z,8.80
2023-04-05T11:49:17.055Z,8.80
2023-04-05T11:51:44.299Z,8.80
2023-04-05T11:54:11.520Z,8.80
2023-04-05T11:56:38.593Z,8.80
2023-04-05T11:59:06.026Z,8.90
2023-04-05T12:01:33.179Z,8.90
2023-04-05T12:04:01.005Z,8.90
2023-04-05T12:06:28.295Z,9.00
2023-04-05T12:08:56.320Z,9.00
2023-04-05T12:11:28.057Z,9.00
2023-04-05T12:13:58.774Z,9.10
2023-04-05T12:16:26.446Z,9.10
2023-04-05T12:18:54.946Z,9.20
2023-04-05T12:21:23.022Z,9.20
2023-04-05T12:23:50.992Z,9.20
2023-04-05T12:26:18.967Z,9.20
2023-04-05T12:28:53.205Z,9.20
2023-04-05T12:31:57.653Z,9.20
2023-04-05T12:34:28.177Z,9.20
2023-04-05T12:36:56.171Z,9.20
2023-04-05T12:39:24.698Z,9.20
2023-04-05T12:42:00.981Z,9.20
2023-04-05T12:44:31.950Z,9.10
2023-04-05T12:47:03.582Z,9.10
2023-04-05T12:49:37.635Z,9.10
2023-04-05T12:52:05.145Z,9.10
2023-04-05T12:54:33.754Z,9.10
2023-04-05T12:57:04.603Z,9.10
2023-04-05T12:59:32.014Z,9.00
2023-04-05T13:01:59.333Z,9.00
2023-04-05T13:04:26.952Z,8.90
2023-04-05T13:06:55.242Z,8.90
2023-04-05T13:09:22.446Z,9.00
2023-04-05T13:11:50.733Z,9.00
2023-04-05T13:14:18.267Z,9.00
2023-04-05T13:16:45.596Z,9.00
2023-04-05T13:19:12.701Z,9.00
2023-04-05T13:21:39.869Z,9.00
2023-04-05T13:24:07.230Z,9.00
2023-04-05T13:26:34.461Z,9.00
2023-04-05T13:29:02.940Z,9.00
2023-04-05T13:31:30.255Z,9.00
2023-04-05T13:33:57.419Z,9.00
2023-04-05T13:36:24.648Z,9.00
2023-04-05T13:38:51.846Z,9.00
2023-04-05T13:41:18.959Z,9.00
2023-04-05T13:43:46.113Z,9.00
2023-04-05T13:46:13.317Z,9.00
2023-04-05T13:48:40.630Z,9.00
2023-04-05T13:51:07.986Z,9.00
2023-04-05T13:53:35.310Z,9.00
2023-04-05T13:56:02.493Z,9.00
2023-04-05T13:58:29.594Z,9.00
2023-04-05T14:00:57.374Z,9.00
2023-04-05T14:03:26.105Z,9.00
2023-04-05T14:05:55.328Z,9.00
2023-04-05T14:08:23.006Z,9.00
2023-04-05T14:10:50.407Z,9.00
2023-04-05T14:13:17.804Z,9.00
2023-04-05T14:15:45.033Z,9.00
2023-04-05T14:18:12.234Z,8.90
2023-04-05T14:20:39.744Z,9.00
2023-04-05T14:23:07.082Z,9.00
2023-04-05T14:25:34.398Z,9.00
2023-04-05T14:28:01.585Z,9.00
2023-04-05T14:30:28.781Z,9.00
2023-04-05T14:32:56.419Z,9.00
2023-04-05T14:35:23.755Z,9.00
2023-04-05T14:37:51.002Z,9.00
2023-04-05T14:40:18.234Z,9.00
2023-04-05T14:42:49.790Z,9.00
2023-04-05T14:45:18.217Z,9.00
2023-04-05T14:47:45.532Z,9.00
2023-04-05T14:50:12.957Z,9.00
2023-04-05T14:52:40.141Z,9.00
2023-04-05T14:55:08.019Z,9.00
2023-04-05T14:57:35.110Z,9.00
2023-04-05T15:00:02.307Z,9.00
2023-04-05T15:02:29.621Z,9.00
2023-04-05T15:05:00.551Z,9.00
2023-04-05T15:07:28.734Z,9.00
2023-04-05T15:09:55.977Z,9.00
2023-04-05T15:12:23.551Z,9.00
2023-04-05T15:14:51.162Z,9.00
2023-04-05T15:17:18.347Z,9.00
2023-04-05T15:19:45.494Z,9.10
2023-04-05T15:22:12.855Z,9.10
2023-04-05T15:24:41.761Z,9.20
2023-04-05T15:27:10.465Z,9.20
2023-04-05T15:29:37.869Z,9.30
2023-04-05T15:32:05.129Z,9.30
2023-04-05T15:34:32.309Z,9.30
2023-04-05T15:36:59.553Z,9.30
2023-04-05T15:39:27.190Z,9.40
2023-04-05T15:41:57.561Z,9.40
2023-04-05T15:44:24.736Z,9.40
2023-04-05T15:46:51.916Z,9.40
2023-04-05T15:49:19.040Z,9.50
2023-04-05T15:51:46.309Z,9.50
2023-04-05T15:54:18.644Z,9.40
2023-04-05T15:56:46.137Z,9.50
2023-04-05T15:59:14.439Z,9.50
2023-04-05T16:01:42.108Z,9.50
2023-04-05T16:04:09.499Z,9.50
2023-04-05T16:06:36.737Z,9.60
2023-04-05T16:09:04.452Z,9.60
2023-04-05T16:11:31.814Z,9.60
2023-04-05T16:13:59.264Z,9.60
2023-04-05T16:16:38.614Z,9.60
2023-04-05T16:19:15.352Z,9.50
2023-04-05T16:21:42.806Z,9.50
2023-04-05T16:24:10.102Z,9.50
2023-04-05T16:26:37.284Z,9.50
2023-04-05T16:29:05.022Z,9.50
2023-04-05T16:31:33.134Z,9.50
2023-04-05T16:34:00.288Z,9.50
2023-04-05T16:36:27.731Z,9.50
2023-04-05T16:38:54.882Z,9.50
2023-04-05T16:41:22.035Z,9.50
2023-04-05T16:43:49.297Z,9.60
2023-04-05T16:46:16.505Z,9.60
2023-04-05T16:48:43.811Z,9.60
2023-04-05T16:51:11.075Z,9.60
2023-04-05T16:53:38.601Z,9.60
2023-04-05T16:56:06.326Z,9.60
2023-04-05T16:58:33.530Z,9.60
2023-04-05T17:01:00.787Z,9.60
2023-04-05T17:03:28.095Z,9.60
2023-04-05T17:05:55.786Z,9.60
2023-04-05T17:08:24.317Z,9.60
2023-04-05T17:10:51.745Z,9.60
2023-04-05T17:13:19.000Z,9.60
2023-04-05T17:15:48.375Z,9.60
2023-04-05T17:18:15.739Z,9.60
2023-04-05T17:20:43.080Z,9.60
2023-04-05T17:23:10.291Z,9.50
2023-04-05T17:25:37.555Z,9.50
2023-04-05T17:28:05.018Z,9.50
2023-04-05T17:30:33.010Z,9.50
2023-04-05T17:33:00.271Z,9.50
2023-04-05T17:35:27.492Z,9.50
2023-04-05T17:37:54.685Z,9.50
2023-04-05T17:40:22.019Z,9.50
2023-04-05T17:42:49.272Z,9.50
2023-04-05T17:45:16.864Z,9.50
2023-04-05T17:47:44.194Z,9.50
2023-04-05T17:50:11.812Z,9.50
2023-04-05T17:52:39.103Z,9.50
2023-04-05T17:55:07.118Z,9.50
2023-04-05T17:57:34.413Z,9.50
2023-04-05T18:00:01.549Z,9.50
2023-04-05T18:02:28.962Z,9.60
2023-04-05T18:04:56.586Z,9.60
2023-04-05T18:07:23.772Z,9.60
2023-04-05T18:09:51.234Z,9.60
2023-04-05T18:12:18.475Z,9.60
2023-04-05T18:14:45.711Z,9.60
2023-04-05T18:17:12.897Z,9.60
2023-04-05T18:19:39.980Z,9.60
2023-04-05T18:22:07.289Z,9.50
2023-04-05T18:24:34.402Z,9.50
2023-04-05T18:27:02.205Z,9.50
2023-04-05T18:29:30.731Z,9.50
2023-04-05T18:31:58.332Z,9.50
2023-04-05T18:34:25.821Z,9.50
2023-04-05T18:36:53.107Z,9.50
2023-04-05T18:39:21.028Z,9.50
2023-04-05T18:41:48.214Z,9.40
2023-04-05T18:44:15.665Z,9.40
2023-04-05T18:46:43.544Z,9.40
2023-04-05T18:49:10.871Z,9.40
2023-04-05T18:51:38.074Z,9.40
2023-04-05T18:54:05.501Z,9.40
2023-04-05T18:56:32.804Z,9.30
2023-04-05T18:59:00.152Z,9.30
2023-04-05T19:01:27.518Z,9.30
2023-04-05T19:03:54.769Z,9.30
2023-04-05T19:06:22.082Z,9.30
2023-04-05T19:11:36.991Z,9.30
2023-04-05T19:14:04.273Z,9.30
2023-04-05T19:16:31.544Z,9.30
2023-04-05T19:18:58.845Z,9.40
2023-04-05T19:21:26.241Z,9.40
2023-04-05T19:23:53.415Z,9.40
2023-04-05T19:26:22.400Z,9.40
2023-04-05T19:28:50.067Z,9.40
2023-04-05T19:31:17.273Z,9.40
2023-04-05T19:33:44.638Z,9.40
2023-04-05T19:36:12.168Z,9.40
2023-04-05T19:38:40.238Z,9.40
2023-04-05T19:41:07.429Z,9.40
2023-04-05T19:43:36.860Z,9.40
2023-04-05T19:46:09.925Z,9.30
2023-04-05T19:48:42.148Z,9.30
2023-04-05T19:51:11.321Z,9.30
2023-04-05T19:53:48.033Z,9.30
2023-04-05T19:56:29.913Z,9.40
2023-04-05T19:59:03.772Z,9.30
2023-04-05T20:01:36.785Z,9.30
2023-04-05T20:04:17.251Z,9.30
2023-04-05T20:06:53.726Z,9.30
2023-04-05T20:09:26.655Z,9.30
2023-04-05T20:11:59.492Z,9.30
2023-04-05T20:14:36.170Z,9.30
2023-04-05T20:17:04.634Z,9.30
2023-04-05T20:19:31.981Z,9.30
2023-04-05T20:22:01.853Z,9.20
2023-04-05T20:24:29.689Z,9.20
2023-04-05T20:26:57.185Z,9.20
2023-04-05T20:29:32.379Z,9.20
2023-04-05T20:32:00.993Z,9.20
2023-04-05T20:34:36.640Z,9.20
2023-04-05T20:37:07.409Z,9.10
2023-04-05T20:39:35.226Z,9.10
2023-04-05T20:42:03.833Z,9.20
2023-04-05T20:44:31.615Z,9.20
2023-04-05T20:46:59.079Z,9.20
2023-04-05T20:49:26.411Z,9.20
2023-04-05T20:51:57.525Z,9.20
2023-04-05T20:54:25.150Z,9.20
2023-04-05T20:56:52.536Z,9.30
2023-04-05T20:59:20.216Z,9.30
2023-04-05T21:01:47.710Z,9.30
2023-04-05T21:04:15.194Z,9.30
2023-04-05T21:06:42.472Z,9.30
2023-04-05T21:09:10.159Z,9.30
2023-04-05T21:11:37.750Z,9.30
2023-04-05T21:14:05.053Z,9.30
2023-04-05T21:16:32.231Z,9.30
2023-04-05T21:18:59.512Z,9.30
2023-04-05T21:21:27.317Z,9.30
2023-04-05T21:23:54.503Z,9.30
2023-04-05T21:26:21.655Z,9.30
2023-04-05T21:28:49.135Z,9.30
2023-04-05T21:31:16.638Z,9.40
2023-04-05T21:33:43.933Z,9.40
2023-04-05T21:36:11.096Z,9.40
2023-04-05T21:38:38.266Z,9.40
2023-04-05T21:41:05.480Z,9.40
2023-04-05T21:43:32.649Z,9.40
2023-04-05T21:45:59.758Z,9.40
2023-04-05T21:48:28.188Z,9.40
2023-04-05T21:50:56.045Z,9.40
2023-04-05T21:53:25.581Z,9.40
2023-04-05T21:55:53.016Z,9.40
2023-04-05T21:58:20.268Z,9.40
2023-04-05T22:00:47.451Z,9.40
2023-04-05T22:03:14.708Z,9.40
2023-04-05T22:05:41.999Z,9.40
2023-04-05T22:08:09.420Z,9.40
2023-04-05T22:10:37.392Z,9.40
2023-04-05T22:13:04.706Z,9.30
2023-04-05T22:15:32.224Z,9.30
2023-04-05T22:17:59.458Z,9.30
2023-04-05T22:20:26.716Z,9.30
2023-04-05T22:22:53.931Z,9.30
2023-04-05T22:25:21.010Z,9.30
2023-04-05T22:27:48.253Z,9.30
2023-04-05T22:30:16.189Z,9.30
2023-04-05T22:32:43.568Z,9.30
2023-04-05T22:35:11.287Z,9.30
2023-04-05T22:37:40.738Z,9.30
2023-04-05T22:40:08.495Z,9.30
2023-04-05T22:42:35.718Z,9.30
2023-04-05T22:45:03.627Z,9.30
2023-04-05T22:47:30.921Z,9.30
2023-04-05T22:49:58.222Z,9.30
2023-04-05T22:52:25.699Z,9.30
2023-04-05T22:54:53.107Z,9.30
2023-04-05T22:57:20.714Z,9.30
2023-04-05T22:59:47.829Z,9.30
2023-04-05T23:02:14.919Z,9.30
2023-04-05T23:04:42.357Z,9.30
2023-04-05T23:07:09.666Z,9.30
2023-04-05T23:09:37.537Z,9.30
2023-04-05T23:12:05.075Z,9.30
2023-04-05T23:14:32.121Z,9.30
2023-04-05T23:16:59.315Z,9.30
2023-04-05T23:19:26.468Z,9.30
2023-04-05T23:21:54.228Z,9.30
2023-04-05T23:24:21.393Z,9.30
2023-04-05T23:26:48.579Z,9.30
2023-04-05T23:29:15.757Z,9.30
2023-04-05T23:31:42.936Z,9.30
2023-04-05T23:34:10.106Z,9.30
2023-04-05T23:36:38.071Z,9.30
2023-04-05T23:39:05.207Z,9.30
2023-04-05T23:41:32.483Z,9.30
2023-04-05T23:44:00.113Z,9.30
2023-04-05T23:46:27.262Z,9.30
2023-04-05T23:48:54.519Z,9.30
2023-04-05T23:51:21.560Z,9.30
2023-04-05T23:53:48.698Z,9.30
2023-04-05T23:56:16.427Z,9.30
2023-04-05T23:58:43.615Z,9.30
